Time;durP1;ratioP1;P1;durP2;ratioP2;P2;SDS_P1;SDS_P2;PMS_P1;PMS_P2;Temp;Humidity;BMP_temperature;BMP_pressure;BME280_temperature;BME280_humidity;BME280_pressure;Samples;Min_cycle;Max_cycle;Signal;HPM_P1;HPM_P2
2023/03/29 00:02:02;;;;;;;12.00;5.50;;;;;;;4.08;96.76;94213.13;5049429;28;20411;-64
2023/03/29 00:04:29;;;;;;;11.30;5.68;;;;;;;4.07;99.19;94213.53;5048415;28;20123;-65
2023/03/29 00:06:56;;;;;;;11.13;6.05;;;;;;;4.11;99.69;94200.78;5048990;28;20098;-65
2023/03/29 00:09:25;;;;;;;11.43;5.80;;;;;;;3.99;100.00;94199.81;5047281;28;20041;-64
2023/03/29 00:11:52;;;;;;;11.77;6.13;;;;;;;4.13;100.00;94201.97;5049105;28;20033;-64
2023/03/29 00:14:19;;;;;;;10.77;5.50;;;;;;;4.13;99.41;94198.47;5039630;28;20409;-64
2023/03/29 00:16:45;;;;;;;10.63;5.63;;;;;;;4.14;97.31;94198.06;5048715;28;20047;-64
2023/03/29 00:19:12;;;;;;;10.60;5.88;;;;;;;4.26;95.72;94194.34;5047167;28;20098;-65
2023/03/29 00:21:39;;;;;;;9.43;5.40;;;;;;;4.19;93.85;94197.78;5031032;28;20038;-65
2023/03/29 00:24:06;;;;;;;10.10;5.32;;;;;;;4.23;93.66;94208.69;5039252;28;20044;-64
2023/03/29 00:26:33;;;;;;;9.97;5.80;;;;;;;4.21;93.33;94200.13;5049223;28;20045;-64
2023/03/29 00:29:00;;;;;;;9.80;5.68;;;;;;;4.12;95.44;94200.38;5047563;28;20053;-64
2023/03/29 00:31:27;;;;;;;10.50;5.63;;;;;;;4.22;95.62;94184.59;5048293;28;20067;-66
2023/03/29 00:33:54;;;;;;;9.65;5.47;;;;;;;4.20;94.63;94183.06;5048959;28;20102;-65
2023/03/29 00:36:21;;;;;;;11.10;5.93;;;;;;;4.24;93.72;94179.59;5048088;28;20037;-65
2023/03/29 00:38:47;;;;;;;12.27;5.83;;;;;;;4.06;95.15;94179.34;5051645;28;20045;-64
2023/03/29 00:41:14;;;;;;;10.45;5.80;;;;;;;4.08;95.56;94185.97;5048328;28;20099;-65
2023/03/29 00:43:59;;;;;;;12.85;7.65;;;;;;;4.18;95.20;94184.56;5050662;28;20037;-65
2023/03/29 00:46:29;;;;;;;10.88;5.75;;;;;;;4.21;93.01;94189.25;5052559;28;20036;-65
2023/03/29 00:49:01;;;;;;;10.52;5.50;;;;;;;4.26;93.40;94196.31;5052855;28;20109;-65
2023/03/29 00:51:31;;;;;;;9.70;5.50;;;;;;;4.28;92.10;94194.00;5065304;28;20039;-65
2023/03/29 00:54:02;;;;;;;12.30;5.57;;;;;;;4.23;92.77;94184.25;5052711;28;20041;-65
2023/03/29 00:56:35;;;;;;;10.30;5.53;;;;;;;4.17;91.88;94180.28;5052334;28;20041;-66
2023/03/29 00:59:14;;;;;;;10.48;5.85;;;;;;;4.30;91.55;94191.69;5051565;28;20059;-65
2023/03/29 01:01:49;;;;;;;10.85;5.70;;;;;;;4.27;92.36;94201.38;5051716;28;20098;-65
2023/03/29 01:04:24;;;;;;;8.77;5.20;;;;;;;4.38;90.89;94196.84;5040111;28;20049;-65
2023/03/29 01:07:02;;;;;;;9.80;5.32;;;;;;;4.25;89.40;94187.38;5052296;28;20037;-65
2023/03/29 01:09:32;;;;;;;8.43;5.22;;;;;;;4.18;91.50;94173.69;5047011;28;20037;-65
2023/03/29 01:12:04;;;;;;;8.38;4.88;;;;;;;4.18;91.00;94166.31;5048870;28;20049;-65
2023/03/29 01:14:37;;;;;;;28.98;14.55;;;;;;;4.35;91.38;94161.50;5050314;28;20033;-65
2023/03/29 01:17:05;;;;;;;12.53;6.77;;;;;;;4.50;90.20;94179.53;5051900;28;20044;-64
2023/03/29 01:19:41;;;;;;;9.10;5.15;;;;;;;4.44;90.69;94177.50;5048942;28;20052;-65
2023/03/29 01:22:16;;;;;;;8.48;4.80;;;;;;;4.49;88.81;94172.53;5032549;28;20049;-65
2023/03/29 01:24:59;;;;;;;8.38;4.90;;;;;;;4.59;90.21;94188.19;5045922;28;20045;-65
2023/03/29 01:27:57;;;;;;;10.65;5.70;;;;;;;4.65;89.68;94196.00;5051653;28;20053;-66
2023/03/29 01:30:36;;;;;;;9.23;4.93;;;;;;;4.41;91.44;94179.03;5051463;28;20473;-65
2023/03/29 01:33:22;;;;;;;9.50;5.13;;;;;;;4.51;89.37;94170.22;5052044;28;20041;-64
2023/03/29 01:36:17;;;;;;;10.10;5.00;;;;;;;4.61;89.90;94174.22;5051302;28;21703;-64
2023/03/29 01:39:03;;;;;;;7.85;4.85;;;;;;;4.68;89.73;94162.66;5058540;28;20044;-65
2023/03/29 01:42:00;;;;;;;116.35;50.58;;;;;;;4.82;89.87;94170.19;5049678;28;20039;-66
2023/03/29 01:44:41;;;;;;;15.97;8.10;;;;;;;4.79;90.35;94166.28;5040281;28;20371;-65
2023/03/29 01:47:53;;;;;;;8.73;4.55;;;;;;;4.76;92.82;94154.19;5051413;28;20041;-65
2023/03/29 01:50:42;;;;;;;8.35;4.32;;;;;;;4.70;92.27;94141.31;5053384;28;20059;-65
2023/03/29 01:53:23;;;;;;;9.07;4.82;;;;;;;4.75;91.03;94128.16;5051316;28;20057;-65
2023/03/29 01:56:10;;;;;;;10.77;4.45;;;;;;;4.67;91.91;94125.72;5049873;28;20045;-65
2023/03/29 01:58:43;;;;;;;7.17;4.23;;;;;;;4.73;92.24;94127.75;5048974;28;20029;-65
2023/03/29 02:01:16;;;;;;;7.97;3.92;;;;;;;4.68;92.59;94132.75;5037935;28;20068;-65
2023/03/29 02:03:48;;;;;;;7.15;3.75;;;;;;;4.68;92.12;94132.75;5051521;28;20040;-65
2023/03/29 02:06:19;;;;;;;7.57;4.35;;;;;;;4.46;90.57;94116.19;5051050;28;20711;-65
2023/03/29 02:08:46;;;;;;;9.20;4.55;;;;;;;4.52;89.96;94124.81;5051194;28;20052;-66
2023/03/29 02:11:13;;;;;;;7.70;3.70;;;;;;;4.57;90.57;94129.91;5050937;28;20453;-64
2023/03/29 02:13:40;;;;;;;6.85;4.20;;;;;;;4.43;91.27;94124.31;5051149;28;20051;-65
2023/03/29 02:16:13;;;;;;;8.20;4.18;;;;;;;4.49;91.28;94120.91;5049400;28;20109;-66
2023/03/29 02:18:45;;;;;;;7.20;4.05;;;;;;;4.49;90.77;94134.50;5051004;28;20045;-65
2023/03/29 02:21:20;;;;;;;7.72;4.30;;;;;;;4.51;92.02;94145.78;5038406;28;20045;-65
2023/03/29 02:23:49;;;;;;;8.63;4.40;;;;;;;4.50;91.70;94146.13;5051167;28;20037;-65
2023/03/29 02:26:16;;;;;;;7.10;4.30;;;;;;;4.52;92.58;94146.53;5049307;28;20041;-64
2023/03/29 02:28:43;;;;;;;7.70;4.20;;;;;;;4.59;91.83;94139.25;5050692;28;20033;-65
2023/03/29 02:31:28;;;;;;;6.50;4.00;;;;;;;4.62;91.33;94143.16;5050073;28;20070;-64
2023/03/29 02:34:30;;;;;;;9.32;4.32;;;;;;;4.55;92.10;94149.31;5036631;28;20037;-65
2023/03/29 02:37:05;;;;;;;8.30;3.90;;;;;;;4.56;93.42;94141.94;4993061;28;20984;-64
2023/03/29 02:39:33;;;;;;;10.02;4.35;;;;;;;4.48;93.02;94137.56;5029613;28;20453;-66
2023/03/29 02:42:02;;;;;;;7.90;4.10;;;;;;;4.60;92.14;94121.00;5029523;28;20468;-65
2023/03/29 02:44:32;;;;;;;7.53;3.72;;;;;;;4.65;91.48;94117.97;5046282;28;20042;-63
2023/03/29 02:47:05;;;;;;;7.70;4.05;;;;;;;4.74;92.26;94128.53;5030711;28;20037;-64
2023/03/29 02:49:32;;;;;;;7.03;3.90;;;;;;;4.77;91.87;94127.81;5029705;28;20755;-64
2023/03/29 02:52:07;;;;;;;6.47;3.70;;;;;;;4.79;91.24;94117.34;5030372;28;20053;-64
2023/03/29 02:54:36;;;;;;;7.53;4.47;;;;;;;4.71;91.80;94121.91;5029564;28;20037;-64
2023/03/29 02:57:07;;;;;;;6.95;4.00;;;;;;;4.70;92.29;94109.47;5017436;28;20438;-64
2023/03/29 02:59:34;;;;;;;7.78;4.13;;;;;;;4.70;92.61;94112.19;5029677;28;20940;-64
2023/03/29 03:02:02;;;;;;;6.70;3.80;;;;;;;4.67;93.59;94102.06;5030532;28;20045;-64
2023/03/29 03:04:29;;;;;;;8.25;4.00;;;;;;;4.55;95.40;94099.63;5028284;28;20045;-64
2023/03/29 03:06:56;;;;;;;7.05;4.15;;;;;;;4.50;96.22;94106.16;5029457;28;20504;-64
2023/03/29 03:09:23;;;;;;;7.80;4.35;;;;;;;4.48;97.26;94077.78;5029672;28;20037;-66
2023/03/29 03:11:50;;;;;;;6.78;4.10;;;;;;;4.31;99.64;94063.66;5029915;28;20041;-64
2023/03/29 03:14:17;;;;;;;7.93;4.70;;;;;;;4.42;100.00;94062.97;5029763;28;20041;-65
2023/03/29 03:16:44;;;;;;;7.20;4.20;;;;;;;4.53;98.93;94080.19;5029987;28;20042;-65
2023/03/29 03:19:12;;;;;;;8.48;4.75;;;;;;;4.49;99.11;94077.41;5028314;28;20057;-64
2023/03/29 03:21:38;;;;;;;8.15;4.35;;;;;;;4.53;99.36;94080.19;5028566;28;20037;-64
2023/03/29 03:24:06;;;;;;;8.38;4.57;;;;;;;4.64;99.75;94085.72;5028341;28;20042;-64
2023/03/29 03:26:34;;;;;;;8.70;4.30;;;;;;;4.57;100.00;94098.06;5029746;28;20041;-64
2023/03/29 03:29:01;;;;;;;9.15;4.68;;;;;;;4.47;100.00;94092.53;5029751;28;20393;-65
2023/03/29 03:31:28;;;;;;;9.60;5.00;;;;;;;4.47;100.00;94096.03;5029077;28;20056;-65
2023/03/29 03:33:55;;;;;;;9.77;4.47;;;;;;;4.52;100.00;94092.19;5029896;28;20482;-65
2023/03/29 03:36:27;;;;;;;9.02;4.65;;;;;;;4.31;100.00;94093.53;5029461;28;20040;-64
2023/03/29 03:38:54;;;;;;;12.07;4.70;;;;;;;4.36;100.00;94103.28;5029740;28;20064;-64
2023/03/29 03:41:21;;;;;;;10.98;5.07;;;;;;;4.44;100.00;94120.44;5027874;28;20044;-64
2023/03/29 03:43:48;;;;;;;11.73;4.90;;;;;;;4.38;100.00;94134.34;5029694;28;20029;-64
2023/03/29 03:46:15;;;;;;;8.35;4.75;;;;;;;4.24;100.00;94130.69;5029320;28;20049;-64
2023/03/29 03:48:43;;;;;;;9.85;5.57;;;;;;;4.18;100.00;94117.41;5029359;28;20040;-65
2023/03/29 03:51:10;;;;;;;9.50;5.03;;;;;;;4.08;100.00;94112.63;5019004;28;20041;-64
2023/03/29 03:53:38;;;;;;;6.65;3.58;;;;;;;4.32;100.00;94103.22;5014115;28;20479;-64
2023/03/29 03:56:08;;;;;;;5.63;2.75;;;;;;;4.69;100.00;94090.78;5029044;28;20053;-65
2023/03/29 03:58:36;;;;;;;5.05;2.35;;;;;;;4.84;100.00;94061.81;5029343;28;20041;-65
2023/03/29 04:01:04;;;;;;;4.15;2.03;;;;;;;4.90;100.00;94055.66;5029511;28;20047;-65
2023/03/29 04:03:30;;;;;;;5.67;2.77;;;;;;;5.09;100.00;94067.47;5028421;28;20677;-65
2023/03/29 04:06:01;;;;;;;13.82;6.90;;;;;;;5.19;100.00;94074.91;5029269;28;20424;-66
2023/03/29 04:08:29;;;;;;;8.80;4.15;;;;;;;5.01;100.00;94074.81;5028676;28;20391;-65
2023/03/29 04:10:57;;;;;;;8.88;3.30;;;;;;;4.84;100.00;94087.06;5029345;28;20052;-66
2023/03/29 04:13:25;;;;;;;8.40;4.30;;;;;;;4.90;100.00;94079.34;5027590;28;20397;-64
2023/03/29 04:15:55;;;;;;;7.63;4.60;;;;;;;4.92;100.00;94077.03;5028717;28;20033;-65
2023/03/29 04:18:26;;;;;;;6.03;3.80;;;;;;;4.95;100.00;94082.53;5028207;28;20037;-65
2023/03/29 04:20:53;;;;;;;7.40;4.15;;;;;;;4.98;100.00;94080.97;5029305;28;20042;-65
2023/03/29 04:23:19;;;;;;;9.05;3.63;;;;;;;4.96;100.00;94078.63;5028778;28;20425;-64
2023/03/29 04:25:48;;;;;;;10.85;6.30;;;;;;;4.51;100.00;94077.06;5028763;28;20033;-64
2023/03/29 04:28:15;;;;;;;9.70;5.80;;;;;;;4.41;100.00;94078.50;5028789;28;20041;-66
2023/03/29 04:30:41;;;;;;;10.25;5.63;;;;;;;4.42;100.00;94082.00;5028925;28;20041;-65
2023/03/29 04:33:09;;;;;;;8.00;4.85;;;;;;;4.42;100.00;94074.63;5028691;28;20087;-65
2023/03/29 04:35:36;;;;;;;21.75;11.68;;;;;;;4.34;100.00;94076.47;5029056;28;20037;-64
2023/03/29 04:38:03;;;;;;;10.30;4.95;;;;;;;4.49;100.00;94079.38;5028918;28;20040;-64
2023/03/29 04:40:30;;;;;;;9.97;4.47;;;;;;;4.68;100.00;94067.50;5028249;28;20045;-65
2023/03/29 04:42:58;;;;;;;6.10;3.22;;;;;;;4.71;100.00;94075.69;5011458;28;20543;-66
2023/03/29 04:45:25;;;;;;;8.85;3.50;;;;;;;4.71;100.00;94078.41;5028431;28;20693;-65
2023/03/29 04:47:55;;;;;;;6.90;3.80;;;;;;;4.76;100.00;94064.47;5028687;28;20033;-65
2023/03/29 04:50:22;;;;;;;6.28;3.72;;;;;;;4.73;100.00;94064.44;5026183;28;20417;-65
2023/03/29 04:52:49;;;;;;;7.73;3.60;;;;;;;4.84;100.00;94078.13;5027524;28;20087;-66
2023/03/29 04:55:16;;;;;;;6.55;3.15;;;;;;;4.88;100.00;94066.13;5028296;28;20552;-66
2023/03/29 04:57:46;;;;;;;6.97;4.50;;;;;;;4.91;100.00;94068.09;5027167;28;20045;-64
2023/03/29 05:00:14;;;;;;;5.82;3.47;;;;;;;4.99;100.00;94063.53;5026949;28;20052;-64
2023/03/29 05:02:42;;;;;;;6.47;4.28;;;;;;;5.02;100.00;94073.63;5009801;28;20033;-66
2023/03/29 05:05:10;;;;;;;9.33;5.30;;;;;;;4.94;100.00;94070.06;5014753;28;20057;-63
2023/03/29 05:07:38;;;;;;;15.93;8.02;;;;;;;4.99;100.00;94064.28;5028724;28;20037;-64
2023/03/29 05:10:05;;;;;;;18.42;10.27;;;;;;;4.99;100.00;94068.97;5027762;28;20044;-64
2023/03/29 05:12:32;;;;;;;11.68;6.72;;;;;;;5.03;100.00;94067.03;5028721;28;20041;-65
2023/03/29 05:14:59;;;;;;;8.95;4.97;;;;;;;4.96;100.00;94073.19;5028433;28;20059;-65
2023/03/29 05:17:26;;;;;;;10.40;6.30;;;;;;;5.03;100.00;94063.53;5028157;28;20041;-63
2023/03/29 05:19:53;;;;;;;11.32;6.60;;;;;;;5.03;100.00;94072.47;5028109;28;20042;-64
2023/03/29 05:22:20;;;;;;;9.18;5.50;;;;;;;5.06;100.00;94074.44;5028252;28;20044;-66
2023/03/29 05:24:47;;;;;;;7.43;4.63;;;;;;;5.11;100.00;94073.31;5028411;28;20040;-64
2023/03/29 05:27:15;;;;;;;8.52;4.60;;;;;;;5.17;100.00;94069.06;5028042;28;20363;-64
2023/03/29 05:29:43;;;;;;;6.80;3.93;;;;;;;5.11;100.00;94065.94;5029882;28;20478;-64
2023/03/29 05:32:10;;;;;;;7.65;4.13;;;;;;;5.11;100.00;94071.38;5030076;28;20564;-64
2023/03/29 05:34:38;;;;;;;7.22;4.40;;;;;;;5.15;100.00;94074.09;5032129;28;20042;-64
2023/03/29 05:37:04;;;;;;;8.65;4.20;;;;;;;5.24;100.00;94069.13;5029887;28;20389;-65
2023/03/29 05:39:32;;;;;;;8.73;4.20;;;;;;;5.25;100.00;94068.00;5031770;28;20044;-64
2023/03/29 05:42:03;;;;;;;7.77;4.47;;;;;;;5.20;100.00;94071.06;5031743;28;20049;-64
2023/03/29 05:44:30;;;;;;;8.02;4.90;;;;;;;5.32;100.00;94067.25;5042478;28;22646;-66
2023/03/29 05:46:57;;;;;;;8.60;4.65;;;;;;;5.41;100.00;94070.41;5035831;28;20111;-66
2023/03/29 05:49:24;;;;;;;9.20;5.10;;;;;;;5.42;100.00;94071.22;5017165;28;20060;-64
2023/03/29 05:51:55;;;;;;;8.18;4.60;;;;;;;5.28;100.00;94069.16;5019057;28;20372;-65
2023/03/29 05:54:23;;;;;;;8.83;4.60;;;;;;;5.26;100.00;94080.44;5017693;28;20064;-65
2023/03/29 05:56:50;;;;;;;8.25;5.20;;;;;;;5.33;100.00;94085.94;5018064;28;20050;-66
2023/03/29 05:59:18;;;;;;;8.02;4.80;;;;;;;5.45;100.00;94093.00;5011366;28;20107;-68
2023/03/29 06:01:48;;;;;;;8.13;4.78;;;;;;;5.57;100.00;94089.19;5013250;28;20041;-66
2023/03/29 06:04:16;;;;;;;9.93;4.93;;;;;;;5.43;100.00;94092.59;5012743;28;20107;-66
2023/03/29 06:06:43;;;;;;;7.47;4.13;;;;;;;5.46;100.00;94094.56;5030056;28;20056;-66
2023/03/29 06:09:10;;;;;;;8.80;4.72;;;;;;;5.52;100.00;94093.06;5030709;28;20041;-66
2023/03/29 06:11:37;;;;;;;13.05;5.10;;;;;;;5.50;100.00;94089.94;5031298;28;20048;-66
2023/03/29 06:14:04;;;;;;;10.52;4.50;;;;;;;5.59;100.00;94082.22;5031123;28;20045;-67
2023/03/29 06:16:31;;;;;;;8.88;4.85;;;;;;;5.71;100.00;94081.09;5030469;28;21581;-66
2023/03/29 06:18:58;;;;;;;10.20;4.17;;;;;;;5.86;100.00;94081.22;5030885;28;20045;-67
2023/03/29 06:21:27;;;;;;;10.40;5.00;;;;;;;6.07;100.00;94078.59;5030485;28;20056;-66
2023/03/29 06:23:53;;;;;;;12.93;6.00;;;;;;;6.25;100.00;94078.66;5030203;28;20038;-68
2023/03/29 06:26:20;;;;;;;9.38;4.75;;;;;;;6.08;100.00;94091.06;5030579;28;20052;-68
2023/03/29 06:28:47;;;;;;;9.48;4.53;;;;;;;6.16;100.00;94087.22;5031085;28;20383;-66
2023/03/29 06:31:18;;;;;;;10.03;4.60;;;;;;;5.97;100.00;94088.28;5030402;28;20048;-66
2023/03/29 06:33:45;;;;;;;8.95;4.30;;;;;;;6.02;100.00;94087.16;5029660;28;20074;-68
2023/03/29 06:36:14;;;;;;;11.57;4.88;;;;;;;6.14;100.00;94072.41;5028890;28;20048;-66
2023/03/29 06:38:44;;;;;;;9.95;4.53;;;;;;;6.27;100.00;94078.28;5030938;28;20372;-66
2023/03/29 06:41:11;;;;;;;9.80;4.78;;;;;;;6.38;100.00;94090.78;5030203;28;20045;-66
2023/03/29 06:43:38;;;;;;;10.87;5.03;;;;;;;6.30;100.00;94088.41;5017865;28;20033;-66
2023/03/29 06:46:10;;;;;;;10.30;5.07;;;;;;;5.93;100.00;94078.50;5028907;28;20046;-65
2023/03/29 06:48:38;;;;;;;9.52;5.03;;;;;;;6.18;100.00;94078.66;5030742;28;20029;-64
2023/03/29 06:51:06;;;;;;;11.30;4.50;;;;;;;6.22;100.00;94074.00;5029939;28;20037;-66
2023/03/29 06:53:33;;;;;;;11.52;4.47;;;;;;;6.44;97.23;94072.13;5030728;28;20045;-68
2023/03/29 06:56:04;;;;;;;10.37;4.40;;;;;;;6.53;94.24;94077.97;5030605;28;20045;-66
2023/03/29 06:58:30;;;;;;;9.82;4.35;;;;;;;6.76;93.33;94074.13;5028317;28;20090;-66
2023/03/29 07:01:01;;;;;;;12.35;4.38;;;;;;;6.57;92.62;94067.84;5024417;28;20385;-66
2023/03/29 07:03:28;;;;;;;9.80;4.38;;;;;;;6.76;91.61;94069.47;5010087;28;20034;-68
2023/03/29 07:06:02;;;;;;;11.75;4.63;;;;;;;6.94;90.82;94068.69;5024311;28;20052;-65
2023/03/29 07:08:30;;;;;;;7.90;4.13;;;;;;;7.22;90.05;94069.88;5029338;28;20403;-64
2023/03/29 07:10:58;;;;;;;10.40;4.65;;;;;;;7.33;87.90;94076.91;5029786;28;20438;-64
2023/03/29 07:13:25;;;;;;;10.43;4.50;;;;;;;7.23;86.13;94071.47;5029705;28;20143;-68
2023/03/29 07:15:52;;;;;;;7.72;4.45;;;;;;;7.35;84.62;94073.78;5030091;28;20054;-66
2023/03/29 07:18:19;;;;;;;9.35;5.20;;;;;;;7.56;86.49;94071.03;5029304;28;20041;-68
2023/03/29 07:20:47;;;;;;;9.93;5.27;;;;;;;7.69;87.56;94081.56;5030059;28;20394;-66
2023/03/29 07:23:14;;;;;;;11.40;4.93;;;;;;;7.34;85.89;94074.94;5029380;28;20049;-66
2023/03/29 07:25:40;;;;;;;7.90;4.50;;;;;;;7.28;87.97;94073.78;5029945;28;20037;-66
2023/03/29 07:28:07;;;;;;;9.93;4.30;;;;;;;7.27;86.52;94073.00;5029233;28;20437;-70
2023/03/29 07:30:35;;;;;;;10.13;4.70;;;;;;;7.73;87.24;94079.59;5029920;28;20046;-66
2023/03/29 07:33:03;;;;;;;7.93;4.10;;;;;;;8.15;82.70;94072.47;5028490;28;20041;-69
2023/03/29 07:35:30;;;;;;;9.48;4.50;;;;;;;8.28;83.42;94070.06;5028815;28;21758;-67
2023/03/29 07:37:57;;;;;;;7.82;4.18;;;;;;;8.46;81.16;94070.81;5029666;28;20045;-67
2023/03/29 07:40:26;;;;;;;8.70;3.80;;;;;;;8.57;78.01;94081.69;5029052;28;20052;-66
2023/03/29 07:42:55;;;;;;;7.38;4.20;;;;;;;9.42;75.32;94090.53;5029484;28;20378;-66
2023/03/29 07:45:24;;;;;;;7.93;3.90;;;;;;;9.03;72.81;94079.84;5029145;28;20041;-68
2023/03/29 07:47:57;;;;;;;6.30;3.38;;;;;;;8.93;72.28;94078.75;5029518;28;20043;-67
2023/03/29 07:50:25;;;;;;;5.20;3.22;;;;;;;9.42;68.27;94084.25;5028750;28;20103;-67
2023/03/29 07:52:52;;;;;;;7.97;3.83;;;;;;;9.71;67.91;94088.31;5029127;28;20067;-65
2023/03/29 07:55:19;;;;;;;6.68;3.25;;;;;;;10.01;64.90;94100.56;5028808;28;20037;-67
2023/03/29 07:57:48;;;;;;;8.93;3.30;;;;;;;9.96;63.95;94096.31;5029596;28;20048;-67
2023/03/29 08:00:15;;;;;;;6.18;3.28;;;;;;;10.06;63.43;94089.16;5028625;28;20482;-66
2023/03/29 08:02:48;;;;;;;6.03;3.20;;;;;;;9.89;63.33;94082.66;5029301;28;20049;-68
2023/03/29 08:05:16;;;;;;;7.85;2.92;;;;;;;9.58;64.89;94088.03;5028758;28;20045;-66
2023/03/29 08:07:51;;;;;;;5.18;3.20;;;;;;;9.41;64.80;94091.69;5029193;28;20397;-69
2023/03/29 08:10:20;;;;;;;5.33;2.97;;;;;;;9.57;64.97;94094.69;5029067;28;20044;-66
2023/03/29 08:12:49;;;;;;;4.88;2.80;;;;;;;9.75;63.65;94102.75;5029071;28;20033;-67
2023/03/29 08:15:16;;;;;;;5.90;3.03;;;;;;;10.17;63.45;94102.75;5028861;28;20045;-66
2023/03/29 08:17:42;;;;;;;5.03;2.83;;;;;;;9.97;62.26;94111.56;5029271;28;20044;-67
2023/03/29 08:20:12;;;;;;;7.63;3.03;;;;;;;9.92;61.93;94106.53;5017115;28;20048;-66
2023/03/29 08:22:39;;;;;;;6.47;3.03;;;;;;;10.10;60.67;94109.09;5009545;28;20053;-66
2023/03/29 08:25:06;;;;;;;4.90;2.67;;;;;;;10.04;60.92;94096.22;5025994;28;20043;-63
2023/03/29 08:27:34;;;;;;;6.63;2.78;;;;;;;10.55;59.30;94113.72;5029082;28;20445;-66
2023/03/29 08:30:00;;;;;;;4.88;2.70;;;;;;;11.12;58.16;94106.69;5028869;28;20051;-68
2023/03/29 08:32:27;;;;;;;8.23;2.80;;;;;;;11.86;55.42;94108.69;5028456;28;20033;-67
2023/03/29 08:34:54;;;;;;;5.43;2.70;;;;;;;11.97;53.73;94101.06;5029037;28;20460;-66
2023/03/29 08:37:23;;;;;;;6.65;2.70;;;;;;;11.59;54.20;94099.31;5028610;28;20045;-68
2023/03/29 08:39:50;;;;;;;7.28;2.60;;;;;;;11.30;54.20;94095.44;5029027;28;20045;-66
2023/03/29 08:42:39;;;;;;;4.75;2.65;;;;;;;11.36;55.13;94094.56;5028512;28;20049;-67
2023/03/29 08:45:15;;;;;;;5.47;2.63;;;;;;;11.40;54.87;94089.00;5028577;28;20042;-67
2023/03/29 08:48:11;;;;;;;4.33;2.63;;;;;;;11.58;54.53;94085.97;5027456;28;20046;-67
2023/03/29 08:50:48;;;;;;;5.82;2.35;;;;;;;11.59;54.34;94091.06;5024461;28;20717;-65
2023/03/29 08:53:29;;;;;;;3.97;2.30;;;;;;;11.68;52.50;94093.25;5028346;28;20045;-65
2023/03/29 08:56:00;;;;;;;5.18;2.35;;;;;;;11.89;52.47;94102.38;5028822;28;20050;-66
2023/03/29 08:58:31;;;;;;;5.43;2.33;;;;;;;12.16;51.28;94097.56;5028172;28;20130;-69
2023/03/29 09:01:04;;;;;;;5.17;2.30;;;;;;;12.69;49.58;94105.22;5028434;28;20037;-65
2023/03/29 09:03:37;;;;;;;6.00;2.20;;;;;;;12.99;47.42;94101.44;5043970;28;20573;-68
2023/03/29 09:06:09;;;;;;;5.50;2.20;;;;;;;13.46;48.30;94092.94;5032234;28;20045;-63
2023/03/29 09:08:40;;;;;;;5.25;2.10;;;;;;;13.15;46.28;94093.19;5032504;28;20037;-65
2023/03/29 09:11:07;;;;;;;4.10;2.00;;;;;;;13.75;46.52;94086.72;5031950;28;20049;-65
2023/03/29 09:14:01;;;;;;;4.37;1.80;;;;;;;14.31;43.13;94080.19;5032421;28;20046;-70
2023/03/29 09:17:13;;;;;;;3.60;2.05;;;;;;;14.23;42.30;94074.06;5021363;28;20040;-66
2023/03/29 09:19:53;;;;;;;4.70;1.80;;;;;;;13.83;42.00;94077.06;5006397;28;21746;-66
2023/03/29 09:23:01;;;;;;;3.10;1.80;;;;;;;13.86;41.64;94075.41;5013208;28;20042;-68
2023/03/29 09:25:33;;;;;;;3.42;1.88;;;;;;;14.35;40.78;94080.84;5030191;28;20045;-67
2023/03/29 09:28:25;;;;;;;3.00;1.50;;;;;;;14.27;39.96;94071.22;5031676;28;20056;-68
2023/03/29 09:31:11;;;;;;;2.92;1.50;;;;;;;13.99;39.47;94066.00;5032133;28;20046;-66
2023/03/29 09:34:02;;;;;;;5.00;1.85;;;;;;;14.34;39.10;94073.78;5019447;28;20389;-66
2023/03/29 09:36:52;;;;;;;3.22;1.70;;;;;;;14.39;38.83;94070.50;5031380;28;20041;-69
2023/03/29 09:39:21;;;;;;;3.40;1.70;;;;;;;14.02;39.87;94072.63;5023742;28;20056;-66
2023/03/29 09:42:07;;;;;;;5.27;1.23;;;;;;;14.43;38.60;94073.94;5032027;28;20044;-66
2023/03/29 09:44:42;;;;;;;4.53;1.55;;;;;;;14.02;39.08;94069.09;5031172;28;20629;-66
2023/03/29 09:47:15;;;;;;;3.42;1.70;;;;;;;13.95;38.76;94062.56;5031265;28;20049;-69
2023/03/29 09:49:56;;;;;;;3.67;1.52;;;;;;;13.98;39.95;94067.22;5031751;28;20049;-66
2023/03/29 09:52:23;;;;;;;3.70;1.77;;;;;;;14.81;38.38;94066.97;5030784;28;20233;-69
2023/03/29 09:54:51;;;;;;;3.73;1.60;;;;;;;14.60;38.70;94073.91;5031590;28;20029;-66
2023/03/29 09:57:19;;;;;;;4.50;1.60;;;;;;;14.88;38.19;94067.53;5031156;28;20134;-67
2023/03/29 09:59:49;;;;;;;3.58;1.70;;;;;;;15.03;38.76;94067.09;5031060;28;20486;-69
2023/03/29 10:02:19;;;;;;;4.53;1.90;;;;;;;15.26;37.87;94058.50;5041945;28;20106;-69
2023/03/29 10:04:54;;;;;;;4.15;1.55;;;;;;;15.78;36.99;94064.81;5031708;28;20038;-68
2023/03/29 10:07:21;;;;;;;3.63;1.80;;;;;;;16.81;36.26;94061.63;5030967;28;20041;-66
2023/03/29 10:09:51;;;;;;;3.08;1.67;;;;;;;16.84;35.22;94066.28;5029998;28;20045;-66
2023/03/29 10:12:18;;;;;;;3.88;1.52;;;;;;;16.13;36.64;94062.03;5030603;28;20112;-68
2023/03/29 10:14:50;;;;;;;3.47;1.60;;;;;;;15.31;37.88;94071.78;5030916;28;20038;-66
2023/03/29 10:17:31;;;;;;;5.05;1.90;;;;;;;14.71;38.64;94071.59;5018816;28;20441;-66
2023/03/29 10:20:01;;;;;;;4.23;2.00;;;;;;;14.64;39.62;94074.56;5046557;28;20113;-66
2023/03/29 10:22:36;;;;;;;5.00;1.73;;;;;;;15.30;38.16;94070.22;5050297;28;20664;-66
2023/03/29 10:25:11;;;;;;;3.30;1.63;;;;;;;15.15;38.59;94077.41;5051040;28;20041;-67
2023/03/29 10:27:41;;;;;;;3.75;1.90;;;;;;;14.05;39.00;94076.53;5050305;28;20856;-67
2023/03/29 10:30:11;;;;;;;3.55;1.90;;;;;;;14.02;39.98;94077.38;5050616;28;20051;-67
2023/03/29 10:32:39;;;;;;;3.60;2.27;;;;;;;13.87;40.12;94082.50;5051103;28;20048;-67
2023/03/29 10:35:23;;;;;;;3.30;1.60;;;;;;;13.84;38.99;94066.81;5050349;28;20371;-66
2023/03/29 10:37:52;;;;;;;3.45;1.70;;;;;;;13.88;40.03;94070.25;5050852;28;20045;-68
2023/03/29 10:40:33;;;;;;;3.60;1.88;;;;;;;13.56;40.44;94069.06;5050574;28;20051;-67
2023/03/29 10:43:11;;;;;;;2.60;1.58;;;;;;;13.08;40.90;94065.81;5050474;28;20044;-66
2023/03/29 10:45:39;;;;;;;4.37;1.80;;;;;;;12.95;41.87;94053.91;5049966;28;20037;-69
2023/03/29 10:48:11;;;;;;;3.35;1.83;;;;;;;13.02;41.93;94056.50;5049984;28;20045;-66
2023/03/29 10:50:38;;;;;;;4.40;1.67;;;;;;;13.51;41.29;94051.06;5057835;28;20542;-66
2023/03/29 10:53:13;;;;;;;3.72;1.80;;;;;;;13.44;41.10;94040.22;5052453;28;20064;-66
2023/03/29 10:55:56;;;;;;;3.28;1.65;;;;;;;13.29;41.27;94048.03;5050313;28;20048;-68
2023/03/29 10:58:41;;;;;;;4.10;2.73;;;;;;;13.31;40.91;94036.59;5049878;28;20041;-66
2023/03/29 11:01:25;;;;;;;4.82;1.90;;;;;;;13.22;42.14;94039.91;5049660;28;20662;-67
2023/03/29 11:04:17;;;;;;;3.35;1.80;;;;;;;13.13;41.30;94043.25;5050483;28;20101;-67
2023/03/29 11:07:13;;;;;;;3.65;1.80;;;;;;;13.12;42.29;94032.66;5035263;28;20254;-66
2023/03/29 11:10:03;;;;;;;5.18;1.80;;;;;;;13.45;41.03;94033.47;5049478;28;20583;-66
2023/03/29 11:13:01;;;;;;;4.07;1.70;;;;;;;13.73;41.49;94034.00;5029761;28;20087;-67
2023/03/29 11:15:51;;;;;;;3.05;1.52;;;;;;;13.87;41.38;94028.09;5019620;28;20474;-66
2023/03/29 11:18:44;;;;;;;3.03;1.55;;;;;;;13.81;41.41;94031.81;5028269;28;20094;-65
2023/03/29 11:21:32;;;;;;;3.67;1.50;;;;;;;14.11;41.11;94025.88;5029664;28;20033;-66
2023/03/29 11:24:17;;;;;;;4.07;1.73;;;;;;;14.34;40.71;94037.88;5019813;28;20443;-68
2023/03/29 11:26:55;;;;;;;4.37;2.33;;;;;;;14.64;40.45;94039.44;5014217;28;20258;-69
2023/03/29 11:29:30;;;;;;;5.18;1.52;;;;;;;14.79;39.47;94031.50;5029427;28;20045;-66
2023/03/29 11:32:07;;;;;;;3.92;1.38;;;;;;;14.88;39.18;94025.31;5016592;28;20048;-67
2023/03/29 11:35:02;;;;;;;3.97;1.45;;;;;;;14.92;40.14;94028.75;5014653;28;20033;-66
2023/03/29 11:37:37;;;;;;;4.15;1.50;;;;;;;15.26;40.22;94041.16;5029196;28;20041;-66
2023/03/29 11:40:35;;;;;;;3.40;1.67;;;;;;;15.43;38.74;94030.72;5021992;28;20045;-67
2023/03/29 11:43:08;;;;;;;3.95;1.50;;;;;;;15.41;39.38;94036.69;5025980;28;20668;-69
2023/03/29 11:45:40;;;;;;;4.25;1.30;;;;;;;15.92;38.27;94028.34;5028660;28;20699;-69
2023/03/29 11:48:17;;;;;;;3.60;1.15;;;;;;;16.31;37.21;94034.50;5029167;28;20045;-66
2023/03/29 11:51:01;;;;;;;3.47;1.20;;;;;;;15.80;36.51;94029.16;5029547;28;20037;-68
2023/03/29 11:53:55;;;;;;;4.10;1.40;;;;;;;15.68;37.75;94029.94;5028896;28;20095;-70
2023/03/29 11:56:33;;;;;;;3.53;1.30;;;;;;;16.05;36.04;94027.53;5016282;28;20045;-66
2023/03/29 11:59:09;;;;;;;6.32;1.65;;;;;;;16.24;35.99;94026.47;5029391;28;20048;-65